createdAt,value
2019-03-20T00:01:28.332Z,7.35
2019-03-20T00:03:55.776Z,7.43
2019-03-20T00:06:23.269Z,7.34
2019-03-20T00:08:50.766Z,7.10
2019-03-20T00:11:18.186Z,7.22
2019-03-20T00:13:45.615Z,7.17
2019-03-20T00:16:13.098Z,6.94
2019-03-20T00:18:40.699Z,7.25
2019-03-20T00:21:08.179Z,7.33
2019-03-20T00:23:35.691Z,7.44
2019-03-20T00:26:03.430Z,7.44
2019-03-20T00:28:31.079Z,7.49
2019-03-20T00:30:58.575Z,7.57
2019-03-20T00:33:26.034Z,7.16
2019-03-20T00:35:53.530Z,7.26
2019-03-20T00:38:22.499Z,7.34
2019-03-20T00:40:49.995Z,7.17
2019-03-20T00:43:17.473Z,7.11
2019-03-20T00:45:44.967Z,7.13
2019-03-20T00:48:12.443Z,7.32
2019-03-20T00:50:39.888Z,7.27
2019-03-20T00:53:07.359Z,7.19
2019-03-20T00:55:34.803Z,7.37
2019-03-20T00:58:02.255Z,7.46
2019-03-20T01:00:29.686Z,7.05
2019-03-20T01:02:57.158Z,7.16
2019-03-20T01:05:24.636Z,7.16
2019-03-20T01:07:52.111Z,7.22
2019-03-20T01:10:19.562Z,7.24
2019-03-20T01:12:49.472Z,7.12
2019-03-20T01:15:17.110Z,7.21
2019-03-20T01:17:44.567Z,7.19
2019-03-20T01:20:15.703Z,7.30
2019-03-20T01:22:43.214Z,7.20
2019-03-20T01:25:10.645Z,6.96
2019-03-20T01:27:38.117Z,6.99
2019-03-20T01:30:24.008Z,6.90
2019-03-20T01:32:51.483Z,6.91
2019-03-20T01:35:23.783Z,6.63
2019-03-20T01:37:46.434Z,6.75
2019-03-20T01:40:15.797Z,6.88
2019-03-20T01:42:43.395Z,6.76
2019-03-20T01:45:10.896Z,7.00
2019-03-20T01:47:38.294Z,6.89
2019-03-20T01:50:05.711Z,6.88
2019-03-20T01:52:33.202Z,6.82
2019-03-20T01:55:00.626Z,6.70
2019-03-20T01:57:28.081Z,6.82
2019-03-20T01:59:55.528Z,6.97
2019-03-20T02:02:23.019Z,6.96
2019-03-20T02:04:50.443Z,6.90
2019-03-20T02:07:17.925Z,6.82
2019-03-20T02:09:45.358Z,6.52
2019-03-20T02:12:12.862Z,6.54
2019-03-20T02:14:40.480Z,6.58
2019-03-20T02:17:07.944Z,6.88
2019-03-20T02:19:35.385Z,6.38
2019-03-20T02:22:03.308Z,6.44
2019-03-20T02:24:30.759Z,6.73
2019-03-20T02:26:58.259Z,6.80
2019-03-20T02:29:25.703Z,6.66
2019-03-20T02:31:53.172Z,6.47
2019-03-20T02:34:20.642Z,6.50
2019-03-20T02:36:48.107Z,6.55
2019-03-20T02:39:15.564Z,6.63
2019-03-20T02:41:43.058Z,6.47
2019-03-20T02:44:10.527Z,6.73
2019-03-20T02:46:37.987Z,6.83
2019-03-20T02:49:05.448Z,6.72
2019-03-20T02:51:33.777Z,6.63
2019-03-20T02:54:01.258Z,6.62
2019-03-20T02:56:28.701Z,6.61
2019-03-20T02:58:56.271Z,6.72
2019-03-20T03:01:23.726Z,6.57
2019-03-20T03:03:51.157Z,6.58
2019-03-20T03:06:18.599Z,6.58
2019-03-20T03:08:46.046Z,6.70
2019-03-20T03:11:13.500Z,6.62
2019-03-20T03:13:40.951Z,6.72
2019-03-20T03:16:08.458Z,6.58
2019-03-20T03:18:35.897Z,6.83
2019-03-20T03:21:04.283Z,6.87
2019-03-20T03:23:31.736Z,6.88
2019-03-20T03:25:59.226Z,6.86
2019-03-20T03:28:26.680Z,6.86
2019-03-20T03:30:54.144Z,6.96
2019-03-20T03:33:21.616Z,6.99
2019-03-20T03:35:49.275Z,6.82
2019-03-20T03:38:16.784Z,6.64
2019-03-20T03:40:44.230Z,6.87
2019-03-20T03:43:11.698Z,6.94
2019-03-20T03:45:39.154Z,7.04
2019-03-20T03:48:06.616Z,6.81
2019-03-20T03:50:34.787Z,6.36
2019-03-20T03:53:02.253Z,6.32
2019-03-20T03:55:29.738Z,6.18
2019-03-20T03:57:57.261Z,6.33
2019-03-20T04:00:25.235Z,6.25
2019-03-20T04:02:52.720Z,5.92
2019-03-20T04:05:20.197Z,6.07
2019-03-20T04:07:47.651Z,6.13
2019-03-20T04:10:15.094Z,6.26
2019-03-20T04:12:42.554Z,5.86
2019-03-20T04:15:10.034Z,6.18
2019-03-20T04:17:37.521Z,6.05
2019-03-20T04:20:06.271Z,6.18
2019-03-20T04:22:33.794Z,6.18
2019-03-20T04:25:01.245Z,6.29
2019-03-20T04:27:28.728Z,6.32
2019-03-20T04:29:56.201Z,6.15
2019-03-20T04:32:23.652Z,5.99
2019-03-20T04:34:52.743Z,6.06
2019-03-20T04:37:20.286Z,6.07
2019-03-20T04:39:47.754Z,5.88
2019-03-20T04:42:15.217Z,6.03
2019-03-20T04:44:42.679Z,6.17
2019-03-20T04:47:10.143Z,6.03
2019-03-20T04:49:37.594Z,6.00
2019-03-20T04:52:05.894Z,6.08
2019-03-20T04:54:33.339Z,6.09
2019-03-20T04:57:00.834Z,6.08
2019-03-20T04:59:28.263Z,6.16
2019-03-20T05:01:55.717Z,6.26
2019-03-20T05:04:23.198Z,6.14
2019-03-20T05:06:58.793Z,6.33
2019-03-20T05:09:18.174Z,6.39
2019-03-20T05:11:45.628Z,6.46
2019-03-20T05:14:13.110Z,6.40
2019-03-20T05:16:40.578Z,6.54
2019-03-20T05:19:08.086Z,6.61
2019-03-20T05:21:36.555Z,6.38
2019-03-20T05:24:04.007Z,6.47
2019-03-20T05:26:31.474Z,6.46
2019-03-20T05:28:58.889Z,6.52
2019-03-20T05:31:26.366Z,6.57
2019-03-20T05:33:53.840Z,6.57
2019-03-20T05:36:21.338Z,6.53
2019-03-20T05:38:48.789Z,6.39
2019-03-20T05:41:16.320Z,6.38
2019-03-20T05:43:43.739Z,6.55
2019-03-20T05:46:11.165Z,6.46
2019-03-20T05:48:38.625Z,6.53
2019-03-20T05:51:06.993Z,6.36
2019-03-20T05:53:34.470Z,6.46
2019-03-20T05:56:01.935Z,6.37
2019-03-20T05:58:29.401Z,6.55
2019-03-20T06:00:56.910Z,6.55
2019-03-20T06:03:24.344Z,6.57
2019-03-20T06:05:51.809Z,6.47
2019-03-20T06:08:19.264Z,6.26
2019-03-20T06:10:46.778Z,6.29
2019-03-20T06:13:14.269Z,6.21
2019-03-20T06:15:41.727Z,6.45
2019-03-20T06:18:09.194Z,6.18
2019-03-20T06:20:37.466Z,6.58
2019-03-20T06:23:04.931Z,6.65
2019-03-20T06:25:32.385Z,6.73
2019-03-20T06:27:59.872Z,6.91
2019-03-20T06:30:27.334Z,6.89
2019-03-20T06:32:54.798Z,6.66
2019-03-20T06:35:23.179Z,6.90
2019-03-20T06:37:50.699Z,6.81
2019-03-20T06:40:18.174Z,6.84
2019-03-20T06:42:45.660Z,6.90
2019-03-20T06:45:15.722Z,7.05
2019-03-20T06:47:43.193Z,7.09
2019-03-20T06:50:13.422Z,6.96
2019-03-20T06:52:40.860Z,6.89
2019-03-20T06:55:08.332Z,6.91
2019-03-20T06:57:35.750Z,6.65
2019-03-20T07:03:32.560Z,6.71
2019-03-20T07:06:16.292Z,6.89
2019-03-20T07:08:44.343Z,7.00
2019-03-20T07:11:11.871Z,7.10
2019-03-20T07:13:39.418Z,6.96
2019-03-20T07:16:06.897Z,7.24
2019-03-20T07:18:34.384Z,7.45
2019-03-20T07:21:01.833Z,7.28
2019-03-20T07:23:29.314Z,7.16
2019-03-20T07:25:56.754Z,7.40
2019-03-20T07:28:24.237Z,7.11
2019-03-20T07:30:51.717Z,7.16
2019-03-20T07:33:19.168Z,7.17
2019-03-20T07:35:46.623Z,7.33
2019-03-20T07:38:14.069Z,7.36
2019-03-20T07:40:41.581Z,7.58
2019-03-20T07:43:09.478Z,7.51
2019-03-20T07:45:36.551Z,7.63
2019-03-20T07:48:04.010Z,7.51
2019-03-20T07:50:31.466Z,7.65
2019-03-20T07:52:58.939Z,7.66
2019-03-20T07:55:26.380Z,7.97
2019-03-20T07:57:53.838Z,8.02
2019-03-20T08:00:21.291Z,8.11
2019-03-20T08:02:48.741Z,8.03
2019-03-20T08:05:16.198Z,8.13
2019-03-20T08:07:43.671Z,8.30
2019-03-20T08:10:12.637Z,8.30
2019-03-20T08:12:40.078Z,8.36
2019-03-20T08:15:23.135Z,8.43
2019-03-20T08:17:50.595Z,8.46
2019-03-20T08:20:21.892Z,8.14
2019-03-20T08:22:49.365Z,8.17
2019-03-20T08:25:16.802Z,8.40
2019-03-20T08:27:44.262Z,8.68
2019-03-20T08:30:13.876Z,8.78
2019-03-20T08:32:40.896Z,8.79
2019-03-20T08:35:08.337Z,8.86
2019-03-20T08:37:35.812Z,8.75
2019-03-20T08:40:03.273Z,8.83
2019-03-20T08:42:30.746Z,8.78
2019-03-20T08:44:59.130Z,8.90
2019-03-20T08:47:26.574Z,8.73
2019-03-20T08:49:54.031Z,8.75
2019-03-20T08:52:21.515Z,8.85
2019-03-20T08:54:48.967Z,8.89
2019-03-20T08:57:16.393Z,9.06
2019-03-20T08:59:43.836Z,8.84
2019-03-20T09:02:11.274Z,9.01
2019-03-20T09:04:38.710Z,9.07
2019-03-20T09:07:06.150Z,9.22
2019-03-20T09:09:33.622Z,8.96
2019-03-20T09:12:01.053Z,9.22
2019-03-20T09:14:28.517Z,9.42
2019-03-20T09:16:55.976Z,9.52
2019-03-20T09:19:24.260Z,9.40
2019-03-20T09:21:51.822Z,9.28
2019-03-20T09:24:19.287Z,9.59
2019-03-20T09:26:46.769Z,9.68
2019-03-20T09:29:18.610Z,9.88
2019-03-20T09:31:43.659Z,9.62
2019-03-20T09:34:11.228Z,9.90
2019-03-20T09:36:43.205Z,9.89
2019-03-20T09:39:06.160Z,9.84
2019-03-20T09:41:33.611Z,9.71
2019-03-20T09:44:01.078Z,9.99
2019-03-20T09:46:28.523Z,9.91
2019-03-20T09:48:56.040Z,10.03
2019-03-20T09:51:23.518Z,10.15
2019-03-20T09:53:50.980Z,10.08
2019-03-20T09:56:18.437Z,10.23
2019-03-20T09:58:45.902Z,10.22
2019-03-20T10:01:13.331Z,10.29
2019-03-20T10:03:41.821Z,10.23
2019-03-20T10:06:09.251Z,10.25
2019-03-20T10:08:36.757Z,10.13
2019-03-20T10:11:04.218Z,10.12
2019-03-20T10:13:31.711Z,10.03
2019-03-20T10:15:59.202Z,10.09
2019-03-20T10:18:27.458Z,10.26
2019-03-20T10:20:54.907Z,10.41
2019-03-20T10:23:22.341Z,10.40
2019-03-20T10:25:49.825Z,10.59
2019-03-20T10:28:17.330Z,10.50
2019-03-20T10:30:44.805Z,10.55
2019-03-20T10:33:12.319Z,10.57
2019-03-20T10:35:49.643Z,10.73
2019-03-20T10:38:07.286Z,10.67
2019-03-20T10:40:35.852Z,10.56
2019-03-20T10:43:03.414Z,10.51
2019-03-20T10:45:30.843Z,10.74
2019-03-20T10:47:58.302Z,10.68
2019-03-20T10:50:26.677Z,10.60
2019-03-20T10:52:54.113Z,10.68
2019-03-20T10:55:21.587Z,10.85
2019-03-20T10:57:49.022Z,10.78
2019-03-20T11:00:21.840Z,10.66
2019-03-20T11:02:49.307Z,10.86
2019-03-20T11:05:16.758Z,10.65
2019-03-20T11:07:44.223Z,10.63
2019-03-20T11:10:16.148Z,10.64
2019-03-20T11:12:43.615Z,10.53
2019-03-20T11:15:11.998Z,10.64
2019-03-20T11:17:39.500Z,10.86
2019-03-20T11:20:06.988Z,10.76
2019-03-20T11:22:34.492Z,10.84
2019-03-20T11:25:01.954Z,10.74
2019-03-20T11:27:29.460Z,10.86
2019-03-20T11:29:56.942Z,10.88
2019-03-20T11:32:24.374Z,10.99
2019-03-20T11:34:51.845Z,11.18
2019-03-20T11:37:19.294Z,11.38
2019-03-20T11:39:46.774Z,11.19
2019-03-20T11:42:14.224Z,11.14
2019-03-20T11:44:41.696Z,11.18
2019-03-20T11:47:09.137Z,11.45
2019-03-20T11:49:36.619Z,11.32
2019-03-20T11:52:06.206Z,11.20
2019-03-20T11:54:31.637Z,11.44
2019-03-20T11:56:59.101Z,11.24
2019-03-20T11:59:26.600Z,11.37
2019-03-20T12:01:54.061Z,11.31
2019-03-20T12:04:21.525Z,11.26
2019-03-20T12:06:48.971Z,11.57
2019-03-20T12:09:16.438Z,11.42
2019-03-20T12:11:46.091Z,11.42
2019-03-20T12:14:11.415Z,11.47
2019-03-20T12:16:38.932Z,11.55
2019-03-20T12:19:06.367Z,11.81
2019-03-20T12:21:33.823Z,11.66
2019-03-20T12:24:01.273Z,11.82
2019-03-20T12:26:28.720Z,11.60
2019-03-20T12:28:56.199Z,11.72
2019-03-20T12:31:23.744Z,11.67
2019-03-20T12:33:51.228Z,11.48
2019-03-20T12:36:18.787Z,11.53
2019-03-20T12:38:46.219Z,11.82
2019-03-20T12:41:13.688Z,11.78
2019-03-20T12:43:41.163Z,11.59
2019-03-20T12:46:08.608Z,11.85
2019-03-20T12:48:36.211Z,12.08
2019-03-20T12:51:03.690Z,12.00
2019-03-20T12:53:31.147Z,11.84
2019-03-20T12:55:58.609Z,11.75
2019-03-20T12:58:26.075Z,11.77
2019-03-20T13:00:54.618Z,11.62
2019-03-20T13:03:20.986Z,11.78
2019-03-20T13:05:48.450Z,11.83
2019-03-20T13:08:15.937Z,11.77
2019-03-20T13:10:43.408Z,11.97
2019-03-20T13:13:10.898Z,11.97
2019-03-20T13:15:38.331Z,11.76
2019-03-20T13:18:05.791Z,11.70
2019-03-20T13:20:33.230Z,11.78
2019-03-20T13:23:11.482Z,11.92
2019-03-20T13:25:38.946Z,12.15
2019-03-20T13:28:06.423Z,11.90
2019-03-20T13:30:38.524Z,12.06
2019-03-20T13:33:05.992Z,12.16
2019-03-20T13:35:33.476Z,12.32
2019-03-20T13:38:00.976Z,12.24
2019-03-20T13:40:28.428Z,12.25
2019-03-20T13:42:55.887Z,12.30
2019-03-20T13:45:23.345Z,11.97
2019-03-20T13:47:51.739Z,11.97
2019-03-20T13:50:19.217Z,12.17
2019-03-20T13:52:46.688Z,12.15
2019-03-20T13:55:14.136Z,11.99
2019-03-20T13:57:41.753Z,11.97
2019-03-20T14:00:19.615Z,12.26
2019-03-20T14:02:47.071Z,12.24
2019-03-20T14:05:14.511Z,12.15
2019-03-20T14:07:41.996Z,11.97
2019-03-20T14:10:10.168Z,12.10
2019-03-20T14:12:37.614Z,12.15
2019-03-20T14:15:05.091Z,12.12
2019-03-20T14:17:32.557Z,12.31
2019-03-20T14:20:00.038Z,12.23
2019-03-20T14:22:27.498Z,12.27
2019-03-20T14:24:56.688Z,12.22
2019-03-20T14:27:24.178Z,12.16
2019-03-20T14:29:52.380Z,12.12
2019-03-20T14:32:19.858Z,12.27
2019-03-20T14:34:47.324Z,12.33
2019-03-20T14:37:14.763Z,12.30
2019-03-20T14:39:42.219Z,12.16
2019-03-20T14:42:09.647Z,12.30
2019-03-20T14:44:37.122Z,12.27
2019-03-20T14:47:04.564Z,12.39
2019-03-20T14:49:32.047Z,12.40
2019-03-20T14:51:59.512Z,12.35
2019-03-20T14:54:26.991Z,12.23
2019-03-20T14:56:54.444Z,12.16
2019-03-20T14:59:21.888Z,12.38
2019-03-20T15:01:49.381Z,12.20
2019-03-20T15:04:16.815Z,12.32
2019-03-20T15:06:44.300Z,12.45
2019-03-20T15:09:11.754Z,12.62
2019-03-20T15:11:41.645Z,12.56
2019-03-20T15:14:09.241Z,12.34
2019-03-20T15:16:36.717Z,12.39
2019-03-20T15:19:04.197Z,12.57
2019-03-20T15:21:31.653Z,12.57
2019-03-20T15:23:59.098Z,12.55
2019-03-20T15:26:26.570Z,12.31
2019-03-20T15:28:54.049Z,12.27
2019-03-20T15:31:21.518Z,12.09
2019-03-20T15:33:48.990Z,12.12
2019-03-20T15:36:16.444Z,12.28
2019-03-20T15:38:43.943Z,12.39
2019-03-20T15:41:11.402Z,12.38
2019-03-20T15:43:38.863Z,12.32
2019-03-20T15:46:06.289Z,12.46
2019-03-20T15:48:33.733Z,12.47
2019-03-20T15:51:01.190Z,12.47
2019-03-20T15:53:28.654Z,12.49
2019-03-20T15:55:56.119Z,12.35
2019-03-20T15:58:24.336Z,12.30
2019-03-20T16:00:51.791Z,12.42
2019-03-20T16:03:22.447Z,12.41
2019-03-20T16:05:49.879Z,12.36
2019-03-20T16:08:17.373Z,12.39
2019-03-20T16:10:44.832Z,12.34
2019-03-20T16:13:12.287Z,12.65
2019-03-20T16:15:39.758Z,12.58
2019-03-20T16:18:07.245Z,12.48
2019-03-20T16:20:34.724Z,12.45
2019-03-20T16:23:02.172Z,12.60
2019-03-20T16:25:29.677Z,12.63
2019-03-20T16:27:57.272Z,12.77
2019-03-20T16:30:25.893Z,12.73
2019-03-20T16:32:53.351Z,12.45
2019-03-20T16:35:20.877Z,12.56
2019-03-20T16:37:48.351Z,12.56
2019-03-20T16:40:15.795Z,12.65
2019-03-20T16:42:43.245Z,12.57
2019-03-20T16:45:20.297Z,12.53
2019-03-20T16:47:47.726Z,12.58
2019-03-20T16:50:15.904Z,12.59
2019-03-20T16:52:43.361Z,12.49
2019-03-20T16:55:10.841Z,12.46
2019-03-20T16:57:38.291Z,12.55
2019-03-20T17:00:29.912Z,12.54
2019-03-20T17:02:57.382Z,12.53
2019-03-20T17:05:25.762Z,12.64
2019-03-20T17:07:53.285Z,12.50
2019-03-20T17:10:24.096Z,12.33
2019-03-20T17:12:51.714Z,12.37
2019-03-20T17:15:19.922Z,12.43
2019-03-20T17:17:47.367Z,12.52
2019-03-20T17:20:14.856Z,12.64
2019-03-20T17:22:42.290Z,12.49
2019-03-20T17:25:09.773Z,12.51
2019-03-20T17:27:37.229Z,12.63
2019-03-20T17:30:04.713Z,12.60
2019-03-20T17:32:32.400Z,12.59
2019-03-20T17:34:59.922Z,12.40
2019-03-20T17:37:27.387Z,12.43
2019-03-20T17:39:54.855Z,12.49
2019-03-20T17:42:22.920Z,12.61
2019-03-20T17:44:50.396Z,12.68
2019-03-20T17:47:17.876Z,12.55
2019-03-20T17:49:45.326Z,12.48
2019-03-20T17:52:12.817Z,12.50
2019-03-20T17:54:40.266Z,12.24
2019-03-20T17:57:07.720Z,12.25
2019-03-20T17:59:35.194Z,12.15
2019-03-20T18:02:02.641Z,12.10
2019-03-20T18:04:30.091Z,11.84
2019-03-20T18:06:57.595Z,11.59
2019-03-20T18:09:25.237Z,11.65
2019-03-20T18:11:52.835Z,11.76
2019-03-20T18:14:20.317Z,11.87
2019-03-20T18:16:47.772Z,11.81
2019-03-20T18:19:15.244Z,11.75
2019-03-20T18:21:42.735Z,11.69
2019-03-20T18:24:10.189Z,11.72
2019-03-20T18:26:37.702Z,11.72
2019-03-20T18:29:05.107Z,11.65
2019-03-20T18:31:32.568Z,11.69
2019-03-20T18:34:00.015Z,11.55
2019-03-20T18:36:27.501Z,11.58
2019-03-20T18:38:55.521Z,11.45
2019-03-20T18:41:23.000Z,11.47
2019-03-20T18:43:50.476Z,11.61
2019-03-20T18:46:17.980Z,11.68
2019-03-20T18:48:45.419Z,11.81
2019-03-20T18:51:12.884Z,11.89
2019-03-20T18:53:40.322Z,11.68
2019-03-20T18:56:07.802Z,11.56
2019-03-20T18:58:35.257Z,11.67
2019-03-20T19:01:02.708Z,11.54
2019-03-20T19:03:31.011Z,11.66
2019-03-20T19:06:02.929Z,11.69
2019-03-20T19:08:30.410Z,11.84
2019-03-20T19:10:58.477Z,11.92
2019-03-20T19:13:28.118Z,11.84
2019-03-20T19:15:55.740Z,11.84
2019-03-20T19:18:23.284Z,11.78
2019-03-20T19:20:50.752Z,11.76
2019-03-20T19:23:18.224Z,11.80
2019-03-20T19:25:45.668Z,11.65
2019-03-20T19:28:13.144Z,11.78
2019-03-20T19:30:40.751Z,11.86
2019-03-20T19:33:08.588Z,11.84
2019-03-20T19:35:36.027Z,11.59
2019-03-20T19:38:03.475Z,11.62
2019-03-20T19:40:31.055Z,11.51
2019-03-20T19:42:58.573Z,11.54
2019-03-20T19:45:26.039Z,11.36
2019-03-20T19:47:53.504Z,11.38
2019-03-20T19:50:21.783Z,11.12
2019-03-20T19:52:49.363Z,10.90
2019-03-20T19:55:16.839Z,10.94
2019-03-20T19:57:44.275Z,10.85
2019-03-20T20:00:15.327Z,10.98
2019-03-20T20:02:42.778Z,10.93
2019-03-20T20:05:15.667Z,10.78
2019-03-20T20:07:37.720Z,10.74
2019-03-20T20:10:08.139Z,10.57
2019-03-20T20:12:35.614Z,10.69
2019-03-20T20:15:03.259Z,10.57
2019-03-20T20:17:30.900Z,10.59
2019-03-20T20:19:59.426Z,10.51
2019-03-20T20:22:27.746Z,10.48
2019-03-20T20:24:55.181Z,10.60
2019-03-20T20:27:22.647Z,10.72
2019-03-20T20:29:50.071Z,10.88
2019-03-20T20:32:17.497Z,10.88
2019-03-20T20:34:45.397Z,10.43
2019-03-20T20:37:12.866Z,10.28
2019-03-20T20:39:40.305Z,10.33
2019-03-20T20:42:07.772Z,10.19
2019-03-20T20:44:36.031Z,10.37
2019-03-20T20:47:03.496Z,10.37
2019-03-20T20:49:32.249Z,10.25
2019-03-20T20:51:58.427Z,10.25
2019-03-20T20:54:25.912Z,10.15
2019-03-20T20:56:53.380Z,10.05
2019-03-20T20:59:20.868Z,10.15
2019-03-20T21:01:48.304Z,10.25
2019-03-20T21:04:16.016Z,10.07
2019-03-20T21:06:43.473Z,10.09
2019-03-20T21:09:10.987Z,10.18
2019-03-20T21:11:38.414Z,10.16
2019-03-20T21:14:05.862Z,10.08
2019-03-20T21:16:33.342Z,10.07
2019-03-20T21:19:26.751Z,9.98
2019-03-20T21:22:10.820Z,10.10
2019-03-20T21:24:38.994Z,10.04
2019-03-20T21:27:27.008Z,10.06
2019-03-20T21:30:19.374Z,10.14
2019-03-20T21:32:49.711Z,10.07
2019-03-20T21:35:28.984Z,10.22
2019-03-20T21:38:04.199Z,10.24
2019-03-20T21:40:32.429Z,10.35
2019-03-20T21:43:11.614Z,10.13
2019-03-20T21:45:41.750Z,10.01
2019-03-20T21:48:09.287Z,10.00
2019-03-20T21:50:48.625Z,10.05
2019-03-20T21:53:18.031Z,10.11
2019-03-20T21:55:57.393Z,10.21
2019-03-20T21:58:24.847Z,10.20
2019-03-20T22:04:03.085Z,10.04
2019-03-20T22:06:37.815Z,10.15
2019-03-20T22:09:05.263Z,10.25
2019-03-20T22:11:53.330Z,10.36
2019-03-20T22:14:20.782Z,10.17
2019-03-20T22:17:10.640Z,10.12
2019-03-20T22:19:42.708Z,9.89
2019-03-20T22:22:16.721Z,10.03
2019-03-20T22:25:05.833Z,10.04
2019-03-20T22:27:38.916Z,9.95
2019-03-20T22:30:06.358Z,9.95
2019-03-20T22:32:40.646Z,9.59
2019-03-20T22:35:23.276Z,9.77
2019-03-20T22:37:50.763Z,9.74
2019-03-20T22:40:30.551Z,9.86
2019-03-20T22:43:11.301Z,9.93
2019-03-20T22:45:48.862Z,9.99
2019-03-20T22:48:35.999Z,10.01
2019-03-20T22:51:23.154Z,9.86
2019-03-20T22:54:02.262Z,9.87
2019-03-20T22:56:35.189Z,9.94
2019-03-20T22:59:02.668Z,10.06
2019-03-20T23:01:30.119Z,10.07
2019-03-20T23:04:00.399Z,9.98
2019-03-20T23:06:27.835Z,10.01
2019-03-20T23:08:55.644Z,10.12
2019-03-20T23:11:23.139Z,10.04
2019-03-20T23:13:50.669Z,9.88
2019-03-20T23:16:18.123Z,9.93
2019-03-20T23:18:45.589Z,9.67
2019-03-20T23:21:13.026Z,9.86
2019-03-20T23:23:40.471Z,9.72
2019-03-20T23:26:07.938Z,9.77
2019-03-20T23:28:35.457Z,9.92
2019-03-20T23:31:03.055Z,9.86
2019-03-20T23:33:31.414Z,10.04
2019-03-20T23:35:59.131Z,10.15
2019-03-20T23:38:28.575Z,10.15
2019-03-20T23:40:54.252Z,10.06
2019-03-20T23:43:21.682Z,10.07
2019-03-20T23:45:49.154Z,10.03
2019-03-20T23:48:23.005Z,10.04
2019-03-20T23:50:51.209Z,10.10
2019-03-20T23:53:18.645Z,10.16
2019-03-20T23:55:46.098Z,10.25
2019-03-20T23:58:13.548Z,10.10
